Terminal Aerodrome Forecast
Issued by NWS

Home | Current Version | Previous Version | Text Only | Print | Product List | Glossary On
Versions: 1 2 3 4 5 6 7 8 9 10 11 12 13 14 15 16 17 18
000
FTUS44 KMAF 182100 AAA
TAFPEQ
TAF AMD
KPEQ 182151Z 1822/1918 11010G20KT P6SM SCT250
     FM191000 13009KT P6SM OVC100 PROB30 1912/1918 P6SM -TSRA
      SCT030CB BKN250=

USA.gov is the U.S. government's official web portal to all federal, state and local government web resources and services.